Observation data for Wolfforth on 01/19/2019      Previous  Date  Next       Current Mesonet Observations  Soil Data  Daily Summary Page  Observations in Plain Language
KWOS 190600Z 34025G33KT 02/00 A3006 RMK A01 T00180000  RH  089%=      5-min Rain = 0
KWOS 190605Z 33025G32KT 02/M00 A3006 RMK A01 T00181003  RH  087%=      5-min Rain = 0
KWOS 190610Z 34027G36KT 02/M01 A3006 RMK A01 T00181005  RH  086%=      5-min Rain = 0
KWOS 190615Z 34027G33KT 02/M01 A3006 RMK A01 T00171006  RH  086%=      5-min Rain = 0
KWOS 190620Z 34023G30KT 02/M00 A3007 RMK A01 T00171004  RH  086%=      5-min Rain = 0
KWOS 190625Z 34024G30KT 02/M01 A3007 RMK A01 T00171005  RH  086%=      5-min Rain = 0
KWOS 190630Z 34024G30KT 02/M01 A3007 RMK A01 T00161006  RH  087%=      5-min Rain = 0
KWOS 190635Z 34023G29KT 01/M01 A3007 RMK A01 T00141007  RH  087%=      5-min Rain = 0
KWOS 190640Z 34022G28KT 01/M01 A3007 RMK A01 T00131007  RH  087%=      5-min Rain = 0
KWOS 190645Z 34021G26KT 01/M01 A3007 RMK A01 T00141007  RH  087%=      5-min Rain = 0
KWOS 190650Z 34022G28KT 01/M01 A3007 RMK A01 T00131009  RH  086%=      5-min Rain = 0
KWOS 190655Z 34024G31KT 01/M01 A3007 RMK A01 T00131011  RH  085%=      5-min Rain = 0
KWOS 190700Z 34024G30KT 01/M01 A3007 RMK A01 T00121014  RH  084%=      5-min Rain = 0
KWOS 190705Z 34023G29KT 01/M02 A3007 RMK A01 T00111015  RH  083%=      5-min Rain = 0
KWOS 190710Z 34026G32KT 01/M02 A3007 RMK A01 T00121019  RH  081%=      5-min Rain = 0
KWOS 190715Z 34025G31KT 01/M02 A3008 RMK A01 T00111019  RH  081%=      5-min Rain = 0
KWOS 190720Z 34023G28KT 01/M02 A3008 RMK A01 T00101019  RH  081%=      5-min Rain = 0
KWOS 190725Z 34024G30KT 01/M02 A3008 RMK A01 T00111020  RH  081%=      5-min Rain = 0
KWOS 190730Z 34021G27KT 01/M02 A3009 RMK A01 T00101019  RH  082%=      5-min Rain = 0
KWOS 190735Z 34021G27KT 01/M02 A3009 RMK A01 T00101018  RH  083%=      5-min Rain = 0
KWOS 190740Z 33021G28KT 01/M02 A3009 RMK A01 T00101017  RH  083%=      5-min Rain = 0
KWOS 190745Z 33019G24KT 01/M02 A301 RMK A01 T00091017  RH  084%=      5-min Rain = 0
KWOS 190750Z 33021G29KT 01/M02 A301 RMK A01 T00081019  RH  083%=      5-min Rain = 0
KWOS 190755Z 33023G28KT 01/M02 A301 RMK A01 T00081022  RH  081%=      5-min Rain = 0
KWOS 190800Z 34022G30KT 01/M02 A301 RMK A01 T00081024  RH  080%=      5-min Rain = 0
KWOS 190805Z 34022G27KT 01/M03 A301 RMK A01 T00081025  RH  080%=      5-min Rain = 0
KWOS 190810Z 33020KT 01/M02 A3011 RMK A01 T00061024  RH  081%=      5-min Rain = 0
KWOS 190815Z 33017G22KT 01/M02 A3011 RMK A01 T00051024  RH  082%=      5-min Rain = 0
KWOS 190820Z 33019G25KT 00/M02 A3011 RMK A01 T00041023  RH  083%=      5-min Rain = 0
KWOS 190825Z 33023G30KT 01/M03 A3011 RMK A01 T00061026  RH  080%=      5-min Rain = 0
KWOS 190830Z 34023G32KT 01/M03 A3012 RMK A01 T00071029  RH  078%=      5-min Rain = 0
KWOS 190835Z 33020G25KT 01/M03 A3012 RMK A01 T00051028  RH  079%=      5-min Rain = 0
KWOS 190840Z 33018G23KT 00/M03 A3012 RMK A01 T00031026  RH  082%=      5-min Rain = 0
KWOS 190845Z 33023G30KT 00/M03 A3011 RMK A01 T00031026  RH  081%=      5-min Rain = 0
KWOS 190850Z 33024G30KT 01/M03 A3012 RMK A01 T00051028  RH  079%=      5-min Rain = 0
KWOS 190855Z 33021G27KT 00/M03 A3012 RMK A01 T00041029  RH  079%=      5-min Rain = 0
KWOS 190900Z 33021G28KT 00/M03 A3012 RMK A01 T00031028  RH  080%=      5-min Rain = 0
KWOS 190905Z 33022KT 00/M03 A3012 RMK A01 T00031028  RH  080%=      5-min Rain = 0
KWOS 190910Z 33020G25KT 00/M03 A3013 RMK A01 T00031029  RH  080%=      5-min Rain = 0
KWOS 190915Z 33022G28KT 00/M03 A3013 RMK A01 T00031028  RH  080%=      5-min Rain = 0
KWOS 190920Z 33022G28KT 00/M03 A3013 RMK A01 T00031029  RH  080%=      5-min Rain = 0
KWOS 190925Z 33025G30KT 00/M03 A3013 RMK A01 T00031030  RH  079%=      5-min Rain = 0
KWOS 190930Z 33024G30KT 00/M03 A3014 RMK A01 T00031031  RH  078%=      5-min Rain = 0
KWOS 190935Z 33023G30KT 00/M03 A3014 RMK A01 T00021032  RH  078%=      5-min Rain = 0
KWOS 190940Z 33023G30KT 00/M03 A3015 RMK A01 T00021032  RH  079%=      5-min Rain = 0
KWOS 190945Z 33022G27KT 00/M03 A3015 RMK A01 T00011033  RH  079%=      5-min Rain = 0
KWOS 190950Z 33021G26KT 00/M03 A3016 RMK A01 T00011033  RH  078%=      5-min Rain = 0
KWOS 190955Z 32019KT 00/03 A3016 RMK A01 T00-00-32  RH  080%=      5-min Rain = 0
KWOS 191000Z 32019G24KT 00/03 A3017 RMK A01 T00-00-31  RH  080%=      5-min Rain = 0
KWOS 191005Z 32020G26KT 00/03 A3017 RMK A01 T00000-31  RH  080%=      5-min Rain = 0
KWOS 191010Z 33022KT 00/M03 A3017 RMK A01 T00021031  RH  079%=      5-min Rain = 0
KWOS 191015Z 33021G26KT 00/M03 A3017 RMK A01 T00021031  RH  079%=      5-min Rain = 0
KWOS 191020Z 33020KT 00/M03 A3017 RMK A01 T00011031  RH  080%=      5-min Rain = 0
KWOS 191025Z 32020G25KT 00/M03 A3017 RMK A01 T00011031  RH  080%=      5-min Rain = 0
KWOS 191030Z 33018G23KT 00/03 A3018 RMK A01 T00-00-31  RH  080%=      5-min Rain = 0
KWOS 191035Z 33018KT M00/M03 A3018 RMK A01 T10011030  RH  081%=      5-min Rain = 0
KWOS 191040Z 33018KT 00/03 A3018 RMK A01 T00-00-30  RH  081%=      5-min Rain = 0
KWOS 191045Z 32017G22KT M00/M03 A3018 RMK A01 T10011029  RH  082%=      5-min Rain = 0
KWOS 191050Z 33017KT M00/M03 A3018 RMK A01 T10011029  RH  082%=      5-min Rain = 0
KWOS 191055Z 33018G24KT 00/03 A3018 RMK A01 T00-00-29  RH  082%=      5-min Rain = 0
KWOS 191100Z 33018KT 00/03 A3019 RMK A01 T00000-30  RH  081%=      5-min Rain = 0
KWOS 191105Z 33017G22KT 00/M03 A3019 RMK A01 T00011030  RH  080%=      5-min Rain = 0
KWOS 191110Z 33017KT 00/M03 A3019 RMK A01 T00021030  RH  080%=      5-min Rain = 0
KWOS 191115Z 33017G22KT 00/M03 A3019 RMK A01 T00021030  RH  080%=      5-min Rain = 0
KWOS 191120Z 33017KT 00/M03 A3019 RMK A01 T00031030  RH  079%=      5-min Rain = 0
KWOS 191125Z 33017KT 00/M03 A3019 RMK A01 T00031030  RH  079%=      5-min Rain = 0
KWOS 191130Z 33016G21KT 00/M03 A3019 RMK A01 T00031031  RH  079%=      5-min Rain = 0
KWOS 191135Z 33016KT 00/M03 A3019 RMK A01 T00031031  RH  079%=      5-min Rain = 0
KWOS 191140Z 33015KT 00/M03 A3019 RMK A01 T00031031  RH  078%=      5-min Rain = 0
KWOS 191145Z 33014KT 00/M03 A3019 RMK A01 T00011031  RH  079%=      5-min Rain = 0
KWOS 191150Z 33013KT M00/M03 A3019 RMK A01 T10011031  RH  080%=      5-min Rain = 0
KWOS 191155Z 33012KT M00/M03 A3019 RMK A01 T10031032  RH  081%=      5-min Rain = 0
KWOS 191200Z 33011KT M01/M03 A3019 RMK A01 T10051032  RH  082%=      5-min Rain = 0
KWOS 191205Z 33010KT M01/M03 A3019 RMK A01 T10061032  RH  083%=      5-min Rain = 0
KWOS 191210Z 33009KT M01/M03 A3019 RMK A01 T10081033  RH  084%=      5-min Rain = 0
KWOS 191215Z 34009KT M01/M03 A3019 RMK A01 T10101033  RH  085%=      5-min Rain = 0
KWOS 191220Z 33008KT M01/M04 A302 RMK A01 T10131035  RH  086%=      5-min Rain = 0
KWOS 191225Z 34007KT M02/M04 A3021 RMK A01 T10161036  RH  087%=      5-min Rain = 0
KWOS 191230Z 34008KT M02/M04 A3021 RMK A01 T10171036  RH  088%=      5-min Rain = 0
KWOS 191235Z 33007KT M02/M04 A3021 RMK A01 T10201037  RH  088%=      5-min Rain = 0
KWOS 191240Z 32007KT M02/M04 A3021 RMK A01 T10221039  RH  089%=      5-min Rain = 0
KWOS 191245Z 32007KT M02/M04 A3021 RMK A01 T10241040  RH  089%=      5-min Rain = 0
KWOS 191250Z 31008KT M02/M04 A3021 RMK A01 T10241039  RH  090%=      5-min Rain = 0
KWOS 191255Z 31011KT M02/M04 A3022 RMK A01 T10221038  RH  090%=      5-min Rain = 0
KWOS 191300Z 31012KT M02/M04 A3022 RMK A01 T10181036  RH  088%=      5-min Rain = 0
KWOS 191305Z 32012KT M02/M04 A3022 RMK A01 T10151036  RH  086%=      5-min Rain = 0
KWOS 191310Z 32012KT M01/M04 A3023 RMK A01 T10131036  RH  085%=      5-min Rain = 0
KWOS 191315Z 32012KT M01/M04 A3023 RMK A01 T10131036  RH  085%=      5-min Rain = 0
KWOS 191320Z 32013KT M01/M04 A3023 RMK A01 T10121035  RH  085%=      5-min Rain = 0
KWOS 191325Z 32013KT M01/M04 A3023 RMK A01 T10111035  RH  084%=      5-min Rain = 0
KWOS 191330Z 32013KT M01/M03 A3024 RMK A01 T10101034  RH  084%=      5-min Rain = 0
KWOS 191335Z 32013KT M01/M03 A3024 RMK A01 T10091034  RH  084%=      5-min Rain = 0
KWOS 191340Z 32012KT M01/M04 A3024 RMK A01 T10101035  RH  084%=      5-min Rain = 0
KWOS 191345Z 32013KT M01/M04 A3024 RMK A01 T10111035  RH  084%=      5-min Rain = 0
KWOS 191350Z 31013KT M01/M03 A3024 RMK A01 T10091034  RH  084%=      5-min Rain = 0
KWOS 191355Z 32013KT M01/M03 A3025 RMK A01 T10071033  RH  083%=      5-min Rain = 0
KWOS 191400Z 32013KT M01/M03 A3025 RMK A01 T10051033  RH  082%=      5-min Rain = 0
KWOS 191405Z 32013KT M00/M03 A3025 RMK A01 T10041033  RH  081%=      5-min Rain = 0
KWOS 191410Z 31014KT M00/M03 A3025 RMK A01 T10021032  RH  081%=      5-min Rain = 0
KWOS 191415Z 31014KT M00/M03 A3026 RMK A01 T10011031  RH  080%=      5-min Rain = 0
KWOS 191420Z 31013KT 00/M03 A3026 RMK A01 T00011031  RH  079%=      5-min Rain = 0
KWOS 191425Z 31015G20KT 01/M03 A3026 RMK A01 T00051030  RH  078%=      5-min Rain = 0
KWOS 191430Z 31016KT 01/M03 A3026 RMK A01 T00091029  RH  076%=      5-min Rain = 0
KWOS 191435Z 31017KT 01/M03 A3026 RMK A01 T00121029  RH  075%=      5-min Rain = 0
KWOS 191440Z 31018KT 02/M03 A3027 RMK A01 T00151028  RH  073%=      5-min Rain = 0
KWOS 191445Z 31018KT 02/M03 A3027 RMK A01 T00181028  RH  072%=      5-min Rain = 0
KWOS 191450Z 31016KT 02/M03 A3027 RMK A01 T00201028  RH  071%=      5-min Rain = 0
KWOS 191455Z 32016KT 02/M03 A3028 RMK A01 T00221027  RH  071%=      5-min Rain = 0
KWOS 191500Z 32016KT 02/M03 A3028 RMK A01 T00231027  RH  070%=      5-min Rain = 0
KWOS 191505Z 32016KT 03/M03 A3028 RMK A01 T00251027  RH  069%=      5-min Rain = 0
KWOS 191510Z 32016KT 03/M03 A3029 RMK A01 T00261026  RH  069%=      5-min Rain = 0
KWOS 191515Z 32015G20KT 03/M03 A3029 RMK A01 T00281025  RH  069%=      5-min Rain = 0
KWOS 191520Z 32016G22KT 03/M02 A303 RMK A01 T00301024  RH  068%=      5-min Rain = 0
KWOS 191525Z 32017G22KT 03/M03 A303 RMK A01 T00321025  RH  067%=      5-min Rain = 0
KWOS 191530Z 32015G20KT 03/M02 A303 RMK A01 T00341023  RH  067%=      5-min Rain = 0
KWOS 191535Z 32016KT 04/M02 A303 RMK A01 T00371023  RH  065%=      5-min Rain = 0
KWOS 191540Z 32017G22KT 04/M02 A303 RMK A01 T00401022  RH  064%=      5-min Rain = 0
KWOS 191545Z 32018KT 04/M02 A303 RMK A01 T00421024  RH  063%=      5-min Rain = 0
KWOS 191550Z 33018G23KT 04/M02 A303 RMK A01 T00431024  RH  062%=      5-min Rain = 0
KWOS 191555Z 33019G24KT 05/M02 A303 RMK A01 T00451024  RH  061%=      5-min Rain = 0
KWOS 191600Z 33019G24KT 05/M03 A303 RMK A01 T00471025  RH  060%=      5-min Rain = 0
KWOS 191605Z 33020G27KT 05/M03 A3031 RMK A01 T00491025  RH  059%=      5-min Rain = 0
KWOS 191610Z 33020KT 05/M03 A3031 RMK A01 T00511026  RH  058%=      5-min Rain = 0
KWOS 191615Z 33019G24KT 05/M03 A3031 RMK A01 T00531025  RH  058%=      5-min Rain = 0
KWOS 191620Z 33019G24KT 05/M03 A3031 RMK A01 T00541025  RH  057%=      5-min Rain = 0
KWOS 191625Z 34019G28KT 06/M02 A3031 RMK A01 T00591024  RH  056%=      5-min Rain = 0
KWOS 191630Z 34019G27KT 06/M03 A3031 RMK A01 T00621026  RH  053%=      5-min Rain = 0
KWOS 191635Z 34021G27KT 07/M03 A3031 RMK A01 T00661029  RH  051%=      5-min Rain = 0
KWOS 191640Z 34020G26KT 07/M03 A3031 RMK A01 T00661030  RH  051%=      5-min Rain = 0
KWOS 191645Z 34022KT 07/M03 A3031 RMK A01 T00671031  RH  050%=      5-min Rain = 0
KWOS 191650Z 34021G27KT 07/M03 A3032 RMK A01 T00691031  RH  049%=      5-min Rain = 0
KWOS 191655Z 35021KT 07/M03 A3032 RMK A01 T00691032  RH  049%=      5-min Rain = 0
KWOS 191700Z 35020KT 07/M03 A3032 RMK A01 T00691032  RH  049%=      5-min Rain = 0
KWOS 191705Z 34019G25KT 07/M03 A3032 RMK A01 T00741030  RH  048%=      5-min Rain = 0
KWOS 191710Z 34019G24KT 08/M03 A3032 RMK A01 T00751030  RH  048%=      5-min Rain = 0
KWOS 191715Z 34021G28KT 08/M03 A3032 RMK A01 T00751032  RH  047%=      5-min Rain = 0
KWOS 191720Z 35020KT 07/M03 A3032 RMK A01 T00741032  RH  047%=      5-min Rain = 0
KWOS 191725Z 35020G26KT 08/M03 A3032 RMK A01 T00781031  RH  046%=      5-min Rain = 0
KWOS 191730Z 35018KT 08/M03 A3032 RMK A01 T00801030  RH  046%=      5-min Rain = 0
KWOS 191735Z 35017G23KT 08/M03 A3032 RMK A01 T00781029  RH  047%=      5-min Rain = 0
KWOS 191740Z 34019G24KT 08/M03 A3032 RMK A01 T00821027  RH  046%=      5-min Rain = 0
KWOS 191745Z 35019G24KT 08/M03 A3032 RMK A01 T00821029  RH  046%=      5-min Rain = 0
KWOS 191750Z 35019KT 08/M03 A3032 RMK A01 T00821029  RH  046%=      5-min Rain = 0
KWOS 191755Z 35017G22KT 09/M03 A3033 RMK A01 T00851026  RH  046%=      5-min Rain = 0
KWOS 191800Z 34017G22KT 09/M03 A3033 RMK A01 T00851027  RH  046%=      5-min Rain = 0
KWOS 191805Z 34015KT 09/M03 A3033 RMK A01 T00871025  RH  045%=      5-min Rain = 0
KWOS 191810Z 34016G23KT 09/M02 A3032 RMK A01 T00871024  RH  046%=      5-min Rain = 0
KWOS 191815Z 35015KT 09/M03 A3032 RMK A01 T00881025  RH  045%=      5-min Rain = 0
KWOS 191820Z 35014G20KT 09/M02 A3032 RMK A01 T00881024  RH  046%=      5-min Rain = 0
KWOS 191825Z 35017KT 09/M03 A3032 RMK A01 T00901026  RH  044%=      5-min Rain = 0
KWOS 191830Z 35014G19KT 09/M03 A3032 RMK A01 T00921025  RH  044%=      5-min Rain = 0
KWOS 191835Z 34015G20KT 09/M02 A3032 RMK A01 T00941024  RH  044%=      5-min Rain = 0
KWOS 191840Z 35015G20KT 10/M03 A3032 RMK A01 T00961026  RH  043%=      5-min Rain = 0
KWOS 191845Z 34017G24KT 10/M03 A3032 RMK A01 T00961028  RH  042%=      5-min Rain = 0
KWOS 191850Z 34016G22KT 10/M03 A3032 RMK A01 T00971027  RH  042%=      5-min Rain = 0
KWOS 191855Z 35016G21KT 10/M03 A3031 RMK A01 T00981025  RH  042%=      5-min Rain = 0
KWOS 191900Z 35016KT 10/M03 A3032 RMK A01 T00951026  RH  043%=      5-min Rain = 0
KWOS 191905Z 35015G24KT 10/M03 A3031 RMK A01 T00961025  RH  043%=      5-min Rain = 0
KWOS 191910Z 33016KT 10/M03 A3031 RMK A01 T00991026  RH  042%=      5-min Rain = 0
KWOS 191915Z 35015G22KT 10/M03 A3031 RMK A01 T01001026  RH  041%=      5-min Rain = 0
KWOS 191920Z 36013KT 10/M03 A303 RMK A01 T01031025  RH  041%=      5-min Rain = 0
KWOS 191925Z 35013G18KT 10/M03 A303 RMK A01 T01011027  RH  041%=      5-min Rain = 0
KWOS 191930Z 34013KT 10/M03 A303 RMK A01 T01031026  RH  041%=      5-min Rain = 0
KWOS 191935Z 34014KT 11/M03 A303 RMK A01 T01051026  RH  040%=      5-min Rain = 0
KWOS 191940Z 33012G18KT 11/M03 A3029 RMK A01 T01061027  RH  040%=      5-min Rain = 0
KWOS 191945Z 35014G19KT 11/M03 A3029 RMK A01 T01071028  RH  039%=      5-min Rain = 0
KWOS 191950Z 34013G19KT 11/M03 A3029 RMK A01 T01081026  RH  039%=      5-min Rain = 0
KWOS 191955Z 35013G18KT 11/M03 A3029 RMK A01 T01081029  RH  038%=      5-min Rain = 0
KWOS 192000Z 34014G26KT 11/M03 A3029 RMK A01 T01091027  RH  039%=      5-min Rain = 0
KWOS 192005Z 33013G18KT 11/M03 A3028 RMK A01 T01101030  RH  038%=      5-min Rain = 0
KWOS 192010Z 34013G19KT 11/M03 A3028 RMK A01 T01101029  RH  038%=      5-min Rain = 0
KWOS 192015Z 33014KT 11/M03 A3028 RMK A01 T01111029  RH  037%=      5-min Rain = 0
KWOS 192020Z 31015G20KT 11/M03 A3028 RMK A01 T01101031  RH  037%=      5-min Rain = 0
KWOS 192025Z 32016G21KT 11/M03 A3027 RMK A01 T01131030  RH  037%=      5-min Rain = 0
KWOS 192030Z 33011G18KT 11/M03 A3027 RMK A01 T01141028  RH  037%=      5-min Rain = 0
KWOS 192035Z 32014KT 11/M03 A3027 RMK A01 T01131029  RH  037%=      5-min Rain = 0
KWOS 192040Z 32015KT 11/M03 A3027 RMK A01 T01131028  RH  037%=      5-min Rain = 0
KWOS 192045Z 32012G17KT 11/M03 A3027 RMK A01 T01131027  RH  038%=      5-min Rain = 0
KWOS 192050Z 31013G18KT 11/M03 A3026 RMK A01 T01131028  RH  038%=      5-min Rain = 0
KWOS 192055Z 33014G19KT 11/M03 A3026 RMK A01 T01121025  RH  038%=      5-min Rain = 0
KWOS 192100Z 33013KT 11/M03 A3026 RMK A01 T01121026  RH  038%=      5-min Rain = 0
KWOS 192105Z 33012G17KT 11/M02 A3026 RMK A01 T01131024  RH  039%=      5-min Rain = 0
KWOS 192110Z 33014G20KT 11/M03 A3026 RMK A01 T01121028  RH  038%=      5-min Rain = 0
KWOS 192115Z 33013KT 11/M03 A3026 RMK A01 T01131028  RH  037%=      5-min Rain = 0
KWOS 192120Z 33012G17KT 11/M03 A3026 RMK A01 T01131027  RH  038%=      5-min Rain = 0
KWOS 192125Z 34011G18KT 11/M03 A3026 RMK A01 T01131025  RH  038%=      5-min Rain = 0
KWOS 192130Z 34012G17KT 11/M03 A3026 RMK A01 T01121026  RH  038%=      5-min Rain = 0
KWOS 192135Z 33013KT 11/M03 A3026 RMK A01 T01131029  RH  037%=      5-min Rain = 0
KWOS 192140Z 33011G17KT 11/M03 A3026 RMK A01 T01131028  RH  037%=      5-min Rain = 0
KWOS 192145Z 33010KT 11/M03 A3026 RMK A01 T01131026  RH  038%=      5-min Rain = 0
KWOS 192150Z 34011KT 11/M03 A3026 RMK A01 T01141027  RH  037%=      5-min Rain = 0
KWOS 192155Z 33011KT 11/M03 A3026 RMK A01 T01131029  RH  037%=      5-min Rain = 0
KWOS 192200Z 32011G17KT 11/M03 A3026 RMK A01 T01141025  RH  038%=      5-min Rain = 0
KWOS 192205Z 34010KT 11/M03 A3026 RMK A01 T01141025  RH  038%=      5-min Rain = 0
KWOS 192210Z 34009KT 11/M03 A3026 RMK A01 T01131026  RH  038%=      5-min Rain = 0
KWOS 192215Z 34011KT 11/M03 A3026 RMK A01 T01131026  RH  038%=      5-min Rain = 0
KWOS 192220Z 34009G14KT 11/M03 A3026 RMK A01 T01141027  RH  038%=      5-min Rain = 0
KWOS 192225Z 34010KT 11/M03 A3025 RMK A01 T01131028  RH  037%=      5-min Rain = 0
KWOS 192230Z 34011KT 11/M03 A3025 RMK A01 T01141027  RH  038%=      5-min Rain = 0
KWOS 192235Z 34009G15KT 11/M03 A3025 RMK A01 T01141027  RH  038%=      5-min Rain = 0
KWOS 192240Z 35007KT 11/M03 A3025 RMK A01 T01131025  RH  038%=      5-min Rain = 0
KWOS 192245Z 35008G13KT 11/M03 A3026 RMK A01 T01121027  RH  038%=      5-min Rain = 0
KWOS 192250Z 34010KT 11/M03 A3025 RMK A01 T01121027  RH  038%=      5-min Rain = 0
KWOS 192255Z 34010KT 11/M03 A3026 RMK A01 T01111027  RH  038%=      5-min Rain = 0
KWOS 192300Z 35008KT 11/M03 A3025 RMK A01 T01101027  RH  038%=      5-min Rain = 0
KWOS 192305Z 36007KT 11/M03 A3025 RMK A01 T01101028  RH  038%=      5-min Rain = 0
KWOS 192310Z 35007KT 11/M03 A3025 RMK A01 T01101028  RH  038%=      5-min Rain = 0
KWOS 192315Z 00007KT 11/M03 A3025 RMK A01 T01091027  RH  038%=      5-min Rain = 0
KWOS 192320Z 01007KT 11/M03 A3025 RMK A01 T01081028  RH  039%=      5-min Rain = 0
KWOS 192325Z 00008KT 11/M03 A3025 RMK A01 T01081029  RH  038%=      5-min Rain = 0
KWOS 192330Z 01006KT 11/M03 A3025 RMK A01 T01071028  RH  039%=      5-min Rain = 0
KWOS 192335Z 01006KT 11/M03 A3025 RMK A01 T01051029  RH  039%=      5-min Rain = 0
KWOS 192340Z 00006KT 10/M03 A3025 RMK A01 T01041029  RH  039%=      5-min Rain = 0
KWOS 192345Z 01007KT 10/M03 A3025 RMK A01 T01011029  RH  040%=      5-min Rain = 0
KWOS 192350Z 01007KT 10/M03 A3026 RMK A01 T00991030  RH  041%=      5-min Rain = 0
KWOS 192355Z 02006KT 10/M03 A3026 RMK A01 T00951030  RH  041%=      5-min Rain = 0
KWOS 200000Z 02005KT 09/M03 A3026 RMK A01 T00921031  RH  042%=      5-min Rain = 0
KWOS 200005Z 02005KT 09/M03 A3026 RMK A01 T00871033  RH  043%=      5-min Rain = 0
KWOS 200010Z 02006KT 08/M03 A3026 RMK A01 T00811034  RH  044%=      5-min Rain = 0
KWOS 200015Z 02006KT 08/M04 A3026 RMK A01 T00751036  RH  045%=      5-min Rain = 0
KWOS 200020Z 02006KT 07/M04 A3026 RMK A01 T00711037  RH  046%=      5-min Rain = 0
KWOS 200025Z 02006KT 07/M04 A3026 RMK A01 T00671038  RH  047%=      5-min Rain = 0
KWOS 200030Z 03005KT 06/M04 A3026 RMK A01 T00641039  RH  048%=      5-min Rain = 0
KWOS 200035Z 04005KT 06/M04 A3026 RMK A01 T00601038  RH  049%=      5-min Rain = 0
KWOS 200040Z 05006KT 06/M04 A3026 RMK A01 T00581036  RH  051%=      5-min Rain = 0
KWOS 200045Z 05005KT 05/M04 A3026 RMK A01 T00541036  RH  052%=      5-min Rain = 0
KWOS 200050Z 06005KT 05/M04 A3026 RMK A01 T00511036  RH  054%=      5-min Rain = 0
KWOS 200055Z 05005KT 05/M04 A3026 RMK A01 T00471036  RH  055%=      5-min Rain = 0
KWOS 200100Z 04006KT 05/M04 A3026 RMK A01 T00481037  RH  054%=      5-min Rain = 0
KWOS 200105Z 05005KT 05/M04 A3026 RMK A01 T00471039  RH  054%=      5-min Rain = 0
KWOS 200110Z 06006KT 04/M04 A3027 RMK A01 T00421040  RH  056%=      5-min Rain = 0
KWOS 200115Z 06006KT 04/M04 A3027 RMK A01 T00391039  RH  057%=      5-min Rain = 0
KWOS 200120Z 06006KT 03/M04 A3026 RMK A01 T00331043  RH  058%=      5-min Rain = 0
KWOS 200125Z 07006KT 03/M04 A3027 RMK A01 T00331043  RH  058%=      5-min Rain = 0
KWOS 200130Z 08005KT 03/M04 A3026 RMK A01 T00321043  RH  058%=      5-min Rain = 0
KWOS 200135Z 08007KT 03/M04 A3026 RMK A01 T00291042  RH  060%=      5-min Rain = 0
KWOS 200140Z 08007KT 03/M04 A3026 RMK A01 T00251040  RH  063%=      5-min Rain = 0
KWOS 200145Z 10007KT 02/M04 A3026 RMK A01 T00231040  RH  064%=      5-min Rain = 0
KWOS 200150Z 10007KT 02/M04 A3025 RMK A01 T00171043  RH  065%=      5-min Rain = 0
KWOS 200155Z 09008KT 02/M04 A3025 RMK A01 T00181042  RH  065%=      5-min Rain = 0
KWOS 200200Z 09009KT 03/M04 A3025 RMK A01 T00251035  RH  065%=      5-min Rain = 0
KWOS 200205Z 08008KT 03/M04 A3025 RMK A01 T00251039  RH  063%=      5-min Rain = 0
KWOS 200210Z 08007KT 02/M05 A3026 RMK A01 T00191045  RH  063%=      5-min Rain = 0
KWOS 200215Z 08006KT 02/M05 A3026 RMK A01 T00161048  RH  063%=      5-min Rain = 0
KWOS 200220Z 08007KT 02/M05 A3026 RMK A01 T00151049  RH  063%=      5-min Rain = 0
KWOS 200225Z 09006KT 01/M05 A3027 RMK A01 T00101050  RH  065%=      5-min Rain = 0
KWOS 200230Z 08005KT 01/M05 A3028 RMK A01 T00081049  RH  066%=      5-min Rain = 0
KWOS 200235Z 08007KT 01/M05 A3027 RMK A01 T00101047  RH  066%=      5-min Rain = 0
KWOS 200240Z 08006KT 01/M05 A3028 RMK A01 T00091046  RH  067%=      5-min Rain = 0
KWOS 200245Z 09005KT 01/M05 A3029 RMK A01 T00091045  RH  067%=      5-min Rain = 0
KWOS 200250Z 08005KT 01/M04 A3029 RMK A01 T00101044  RH  068%=      5-min Rain = 0
KWOS 200255Z 08004KT 01/M04 A3029 RMK A01 T00101044  RH  067%=      5-min Rain = 0
KWOS 200300Z 09005KT 01/M05 A3029 RMK A01 T00091045  RH  067%=      5-min Rain = 0
KWOS 200305Z 10005KT 01/M04 A3028 RMK A01 T00101044  RH  067%=      5-min Rain = 0
KWOS 200310Z 10006KT 01/M05 A3028 RMK A01 T00091046  RH  067%=      5-min Rain = 0
KWOS 200315Z 10006KT 01/M05 A3027 RMK A01 T00081046  RH  067%=      5-min Rain = 0
KWOS 200320Z 11006KT 01/M05 A3027 RMK A01 T00061048  RH  067%=      5-min Rain = 0
KWOS 200325Z 11005KT 01/M04 A3028 RMK A01 T00091043  RH  068%=      5-min Rain = 0
KWOS 200330Z 11006KT 01/M04 A3028 RMK A01 T00111044  RH  067%=      5-min Rain = 0
KWOS 200335Z 12008KT M00/M05 A3027 RMK A01 T10011050  RH  070%=      5-min Rain = 0
KWOS 200340Z 11006KT M01/M05 A3027 RMK A01 T10071049  RH  073%=      5-min Rain = 0
KWOS 200345Z 11006KT M00/M05 A3027 RMK A01 T10041046  RH  073%=      5-min Rain = 0
KWOS 200350Z 11007KT M00/M05 A3027 RMK A01 T10031048  RH  072%=      5-min Rain = 0
KWOS 200355Z 11007KT M01/M05 A3026 RMK A01 T10071050  RH  073%=      5-min Rain = 0
KWOS 200400Z 11007KT M01/M05 A3027 RMK A01 T10081050  RH  073%=      5-min Rain = 0
KWOS 200405Z 12007KT M01/M05 A3026 RMK A01 T10051050  RH  072%=      5-min Rain = 0
KWOS 200410Z 13007KT M01/M05 A3027 RMK A01 T10051051  RH  072%=      5-min Rain = 0
KWOS 200415Z 12006KT M01/M05 A3027 RMK A01 T10051049  RH  072%=      5-min Rain = 0
KWOS 200420Z 12005KT M01/M05 A3027 RMK A01 T10071051  RH  073%=      5-min Rain = 0
KWOS 200425Z 13006KT M01/M05 A3027 RMK A01 T10061050  RH  073%=      5-min Rain = 0
KWOS 200430Z 13006KT 00/05 A3027 RMK A01 T00000-47  RH  071%=      5-min Rain = 0
KWOS 200435Z 14006KT 00/M05 A3027 RMK A01 T00041048  RH  069%=      5-min Rain = 0
KWOS 200440Z 14006KT 00/M05 A3027 RMK A01 T00031048  RH  068%=      5-min Rain = 0
KWOS 200445Z 14006KT 00/M05 A3027 RMK A01 T00011050  RH  069%=      5-min Rain = 0
KWOS 200450Z 14006KT 00/M05 A3027 RMK A01 T00021050  RH  068%=      5-min Rain = 0
KWOS 200455Z 14007KT 00/05 A3027 RMK A01 T00-00-52  RH  068%=      5-min Rain = 0
KWOS 200500Z 14007KT M00/M05 A3028 RMK A01 T10011051  RH  070%=      5-min Rain = 0
KWOS 200505Z 13006KT 00/05 A3028 RMK A01 T00-00-52  RH  068%=      5-min Rain = 0
KWOS 200510Z 13007KT M00/M05 A3028 RMK A01 T10041054  RH  069%=      5-min Rain = 0
KWOS 200515Z 13007KT M01/M06 A3028 RMK A01 T10071056  RH  070%=      5-min Rain = 0
KWOS 200520Z 14007KT M01/M06 A3028 RMK A01 T10081055  RH  071%=      5-min Rain = 0
KWOS 200525Z 13007KT M01/M05 A3028 RMK A01 T10071053  RH  071%=      5-min Rain = 0
KWOS 200530Z 13007KT M01/M06 A3028 RMK A01 T10091055  RH  072%=      5-min Rain = 0
KWOS 200535Z 14007KT M01/M05 A3028 RMK A01 T10081054  RH  071%=      5-min Rain = 0
KWOS 200540Z 14008KT M01/M06 A3028 RMK A01 T10071055  RH  070%=      5-min Rain = 0
KWOS 200545Z 13008KT M01/M06 A3029 RMK A01 T10071055  RH  070%=      5-min Rain = 0
KWOS 200550Z 13009KT M01/M05 A3028 RMK A01 T10061052  RH  071%=      5-min Rain = 0
KWOS 200555Z 13009KT M00/M05 A3028 RMK A01 T10041050  RH  071%=      5-min Rain = 0

Page generated in 0.0094 seconds.